Kezdőlap
METAR-TAF:

METAR-TAF

Repülőterek :

Charles B. Wheeler Downtown Airport

Kansas City, Missouri, Amerikai Egyesült Államok

földrajzi szélesség: 39-07-15N, földrajzi hosszúság: 094-35-49W, magasság: 231 m

Jelenlegi meteorológiai megfigyelések

A jelentés 15 perccel ezelõtt készült, 07:54 UTC
Délnyugati szél 6 kt
Hőmérséklet -4°C
Páratartalom 68%
Légköri nyomás 1024 hPa
Látótávolság: 16.1 km
Derült ég

METAR: KMKC 270754Z 23006KT 10SM CLR M04/M09 A3023 RMK AO2 SLP242 T10391094

Idő: 02:09 (08:09 UTC)

Előrejelzés

A jelentés 2 órával és 49 perccel ezelõtt készült, 05:20 UTC
Az előrejelzés 27-én 06 óra UTC és 28-én 06 óra UTC között érvényes
Délnyugati szél 7 kt
Látótávolság: 10 km
Szórványos felhőzet 20000 lábon
27-én 2000 órától UTC szerint
Nyugati szél 8 kt
Látótávolság: 10 km
Szakadozott felhőzet 5000 lábon

TAF: KMKC 270520Z 2706/2806 22007KT P6SM SCT200 FM272000 28008KT P6SM BKN050

Meteorológiai megfigyelések és előrejelzések több, mint 4000 repülőtéren (METAR és TAF jelentéseket).

A térképen piros és sárga pontok jelzik az elérhető meteorológiai állomásokat.

Mozgassa az egeret a pont fölött, hogy megjelenjen az állomás neve.

Azután kattintson az időjárási megfigyelések és előrejelzések megtekintéséhez.

A térkép megváltoztatása: kattintson a fekete keresztel jelölt zöld gombra ráközelítéshez, a vonallal jelölt zöld gombra távolításhoz, vagy a zöld nyilakra a szomszédos térképek eléréséhez.


METAR-TAF: